createdAt,value
2022-11-20T00:01:34.507Z,13.15
2022-11-20T00:04:01.823Z,14.50
2022-11-20T00:06:29.504Z,9.95
2022-11-20T00:08:57.762Z,11.18
2022-11-20T00:11:26.062Z,12.55
2022-11-20T00:13:54.412Z,10.00
2022-11-20T00:16:22.824Z,11.50
2022-11-20T00:18:50.136Z,12.57
2022-11-20T00:21:18.854Z,11.02
2022-11-20T00:23:46.265Z,7.90
2022-11-20T00:26:17.798Z,5.47
2022-11-20T00:28:45.630Z,12.13
2022-11-20T00:31:14.151Z,11.05
2022-11-20T00:33:41.716Z,10.40
2022-11-20T00:36:10.561Z,10.93
2022-11-20T00:38:38.138Z,10.32
2022-11-20T00:41:10.346Z,11.52
2022-11-20T00:43:38.067Z,9.98
2022-11-20T00:46:09.429Z,11.07
2022-11-20T00:48:36.910Z,11.30
2022-11-20T00:51:04.237Z,8.68
2022-11-20T00:53:31.403Z,10.05
2022-11-20T00:56:06.031Z,10.23
2022-11-20T00:58:34.242Z,5.80
2022-11-20T01:01:05.751Z,10.20
2022-11-20T01:03:33.823Z,9.52
2022-11-20T01:06:02.375Z,9.82
2022-11-20T01:08:33.240Z,8.90
2022-11-20T01:11:01.741Z,9.75
2022-11-20T01:13:37.920Z,7.47
2022-11-20T01:16:12.678Z,9.07
2022-11-20T01:18:40.924Z,9.10
2022-11-20T01:21:14.741Z,9.10
2022-11-20T01:23:43.263Z,12.40
2022-11-20T01:26:12.490Z,10.90
2022-11-20T01:28:41.831Z,9.82
2022-11-20T01:31:28.816Z,12.77
2022-11-20T01:33:58.314Z,11.25
2022-11-20T01:36:27.149Z,9.38
2022-11-20T01:38:58.293Z,11.15
2022-11-20T01:41:48.333Z,11.38
2022-11-20T01:44:16.377Z,13.02
2022-11-20T01:46:54.619Z,11.02
2022-11-20T01:49:23.921Z,10.98
2022-11-20T01:52:06.433Z,10.25
2022-11-20T01:54:37.430Z,9.65
2022-11-20T01:59:31.773Z,9.23
2022-11-20T02:01:58.990Z,10.23
2022-11-20T02:04:26.486Z,7.28
2022-11-20T02:07:02.917Z,4.22
2022-11-20T02:09:30.722Z,6.60
2022-11-20T02:11:58.313Z,7.85
2022-11-20T02:14:26.021Z,9.57
2022-11-20T02:16:53.433Z,10.70
2022-11-20T02:19:31.539Z,9.98
2022-11-20T02:22:01.582Z,9.32
2022-11-20T02:24:28.752Z,13.93
2022-11-20T02:26:58.607Z,9.90
2022-11-20T02:29:28.328Z,8.80
2022-11-20T02:31:56.698Z,10.40
2022-11-20T02:34:23.796Z,10.80
2022-11-20T02:36:52.673Z,11.43
2022-11-20T02:39:21.106Z,10.45
2022-11-20T02:41:48.605Z,8.82
2022-11-20T02:44:16.126Z,10.45
2022-11-20T02:46:43.258Z,10.10
2022-11-20T02:49:10.595Z,9.85
2022-11-20T02:51:37.767Z,9.90
2022-11-20T02:54:05.191Z,10.45
2022-11-20T02:56:32.406Z,8.50
2022-11-20T02:58:59.528Z,10.13
2022-11-20T03:01:26.848Z,10.70
2022-11-20T03:03:55.491Z,11.75
2022-11-20T03:06:22.577Z,7.90
2022-11-20T03:08:49.644Z,10.48
2022-11-20T03:11:16.916Z,9.90
2022-11-20T03:13:46.731Z,8.90
2022-11-20T03:16:15.422Z,8.63
2022-11-20T03:18:43.211Z,9.55
2022-11-20T03:21:10.956Z,7.68
2022-11-20T03:23:38.326Z,10.73
2022-11-20T03:26:09.357Z,10.45
2022-11-20T03:31:07.737Z,7.70
2022-11-20T03:33:34.943Z,11.70
2022-11-20T03:36:10.052Z,11.25
2022-11-20T03:38:37.366Z,8.55
2022-11-20T03:41:05.482Z,9.60
2022-11-20T03:43:32.949Z,9.40
2022-11-20T03:46:01.561Z,9.40
2022-11-20T03:48:29.137Z,12.07
2022-11-20T03:51:09.602Z,8.95
2022-11-20T03:53:37.081Z,9.38
2022-11-20T03:56:04.442Z,10.13
2022-11-20T03:58:31.702Z,8.55
2022-11-20T04:00:59.130Z,8.40
2022-11-20T04:03:27.010Z,10.40
2022-11-20T04:05:54.074Z,8.60
2022-11-20T04:08:21.137Z,9.15
2022-11-20T04:10:48.513Z,7.97
2022-11-20T04:13:15.561Z,8.95
2022-11-20T04:15:42.605Z,8.45
2022-11-20T04:18:09.733Z,9.30
2022-11-20T04:20:37.030Z,8.40
2022-11-20T04:23:04.077Z,6.47
2022-11-20T04:25:31.118Z,8.38
2022-11-20T04:27:58.237Z,6.88
2022-11-20T04:30:25.314Z,8.38
2022-11-20T04:32:53.710Z,7.45
2022-11-20T04:35:20.835Z,8.48
2022-11-20T04:37:47.925Z,8.73
2022-11-20T04:40:15.076Z,6.85
2022-11-20T04:42:42.213Z,9.23
2022-11-20T04:45:09.617Z,8.88
2022-11-20T04:47:36.717Z,7.97
2022-11-20T04:50:04.195Z,7.68
2022-11-20T04:52:31.526Z,8.00
2022-11-20T04:55:01.853Z,9.38
2022-11-20T04:57:29.023Z,9.18
2022-11-20T04:59:56.467Z,7.80
2022-11-20T05:02:24.725Z,8.30
2022-11-20T05:04:54.922Z,9.25
2022-11-20T05:07:22.042Z,8.38
2022-11-20T05:09:49.118Z,9.10
2022-11-20T05:12:16.178Z,6.45
2022-11-20T05:14:43.269Z,9.07
2022-11-20T05:17:13.562Z,5.55
2022-11-20T05:19:40.619Z,7.15
2022-11-20T05:22:07.758Z,7.10
2022-11-20T05:24:34.910Z,6.50
2022-11-20T05:27:02.006Z,6.95
2022-11-20T05:29:29.054Z,8.75
2022-11-20T05:31:56.231Z,7.57
2022-11-20T05:34:23.347Z,6.70
2022-11-20T05:36:50.758Z,5.35
2022-11-20T05:39:17.815Z,6.50
2022-11-20T05:41:44.866Z,7.57
2022-11-20T05:44:12.353Z,9.38
2022-11-20T05:46:39.487Z,7.75
2022-11-20T05:49:06.597Z,7.78
2022-11-20T05:51:33.694Z,6.95
2022-11-20T05:54:00.793Z,5.60
2022-11-20T05:56:27.927Z,9.40
2022-11-20T05:58:55.108Z,7.45
2022-11-20T06:01:23.569Z,5.93
2022-11-20T06:03:51.482Z,5.38
2022-11-20T06:06:19.295Z,7.50
2022-11-20T06:08:46.665Z,7.22
2022-11-20T06:11:14.360Z,5.40
2022-11-20T06:13:42.578Z,8.23
2022-11-20T06:16:10.453Z,5.35
2022-11-20T06:18:37.842Z,6.65
2022-11-20T06:21:06.406Z,8.15
2022-11-20T06:23:34.161Z,7.60
2022-11-20T06:26:08.586Z,7.00
2022-11-20T06:28:36.157Z,7.03
2022-11-20T06:31:03.497Z,8.70
2022-11-20T06:33:30.962Z,8.40
2022-11-20T06:36:01.655Z,5.13
2022-11-20T06:38:30.868Z,7.93
2022-11-20T06:40:58.071Z,7.18
2022-11-20T06:43:25.473Z,5.78
2022-11-20T06:45:56.160Z,6.97
2022-11-20T06:48:24.148Z,6.55
2022-11-20T06:50:53.634Z,7.53
2022-11-20T06:53:20.808Z,7.85
2022-11-20T06:55:48.636Z,6.60
2022-11-20T06:58:16.203Z,8.02
2022-11-20T07:00:43.384Z,6.28
2022-11-20T07:03:11.378Z,7.38
2022-11-20T07:05:39.394Z,6.65
2022-11-20T07:08:06.573Z,7.45
2022-11-20T07:10:33.948Z,6.97
2022-11-20T07:13:01.074Z,7.15
2022-11-20T07:15:28.234Z,5.93
2022-11-20T07:17:55.378Z,8.27
2022-11-20T07:20:22.440Z,3.50
2022-11-20T07:22:54.998Z,6.45
2022-11-20T07:25:22.062Z,8.05
2022-11-20T07:27:49.332Z,6.95
2022-11-20T07:30:19.649Z,8.25
2022-11-20T07:32:52.710Z,6.45
2022-11-20T07:35:20.053Z,7.03
2022-11-20T07:37:48.133Z,8.32
2022-11-20T07:40:15.320Z,6.85
2022-11-20T07:42:52.510Z,7.55
2022-11-20T07:45:20.353Z,6.97
2022-11-20T07:47:47.517Z,6.43
2022-11-20T07:50:14.818Z,7.70
2022-11-20T07:52:42.027Z,7.70
2022-11-20T07:55:10.361Z,13.13
2022-11-20T07:57:37.460Z,21.00
2022-11-20T08:00:05.688Z,23.20
2022-11-20T08:02:40.254Z,14.60
2022-11-20T08:05:07.525Z,10.00
2022-11-20T08:07:41.678Z,7.75
2022-11-20T08:10:10.490Z,9.40
2022-11-20T08:12:56.268Z,9.38
2022-11-20T08:15:23.477Z,8.95
2022-11-20T08:18:15.535Z,10.75
2022-11-20T08:20:37.470Z,9.07
2022-11-20T08:23:08.874Z,9.23
2022-11-20T08:25:36.886Z,9.93
2022-11-20T08:28:15.716Z,10.55
2022-11-20T08:30:47.245Z,9.57
2022-11-20T08:33:14.367Z,9.23
2022-11-20T08:35:42.531Z,10.07
2022-11-20T08:38:10.377Z,15.48
2022-11-20T08:40:37.526Z,13.13
2022-11-20T08:43:05.234Z,11.55
2022-11-20T08:45:34.703Z,12.43
2022-11-20T08:48:02.933Z,11.05
2022-11-20T08:50:34.509Z,13.43
2022-11-20T08:53:07.565Z,11.48
2022-11-20T08:55:36.782Z,8.82
2022-11-20T08:58:07.708Z,9.38
2022-11-20T09:00:35.456Z,8.55
2022-11-20T09:03:05.405Z,10.02
2022-11-20T09:05:32.530Z,9.95
2022-11-20T09:07:59.982Z,11.18
2022-11-20T09:10:29.639Z,10.63
2022-11-20T09:12:56.861Z,12.27
2022-11-20T09:15:25.101Z,12.95
2022-11-20T09:18:12.120Z,12.13
2022-11-20T09:20:39.463Z,11.73
2022-11-20T09:23:06.736Z,12.13
2022-11-20T09:25:33.849Z,9.73
2022-11-20T09:28:00.965Z,10.80
2022-11-20T09:30:28.452Z,9.95
2022-11-20T09:32:55.588Z,8.02
2022-11-20T09:35:22.927Z,10.60
2022-11-20T09:37:50.034Z,10.18
2022-11-20T09:40:30.562Z,9.57
2022-11-20T09:43:13.121Z,10.52
2022-11-20T09:45:54.127Z,10.98
2022-11-20T09:48:40.033Z,9.90
2022-11-20T09:51:19.161Z,10.00
2022-11-20T09:53:46.482Z,11.85
2022-11-20T09:56:18.237Z,11.15
2022-11-20T09:58:56.680Z,11.43
2022-11-20T10:01:27.848Z,13.52
2022-11-20T10:04:14.552Z,10.68
2022-11-20T10:06:46.061Z,11.98
2022-11-20T10:09:14.597Z,9.68
2022-11-20T10:12:02.747Z,10.73
2022-11-20T10:14:35.191Z,12.27
2022-11-20T10:17:15.280Z,12.00
2022-11-20T10:19:45.486Z,12.52
2022-11-20T10:22:15.628Z,12.20
2022-11-20T10:24:49.836Z,10.90
2022-11-20T10:27:22.962Z,12.15
2022-11-20T10:30:01.997Z,12.10
2022-11-20T10:32:34.218Z,11.82
2022-11-20T10:35:20.285Z,12.07
2022-11-20T10:37:49.233Z,11.93
2022-11-20T10:40:30.846Z,11.88
2022-11-20T10:43:00.572Z,12.70
2022-11-20T10:45:30.818Z,11.73
2022-11-20T10:48:16.714Z,12.18
2022-11-20T10:51:10.244Z,14.95
2022-11-20T10:53:56.723Z,12.02
2022-11-20T10:56:32.221Z,12.82
2022-11-20T10:59:02.478Z,13.32
2022-11-20T11:01:29.612Z,16.08
2022-11-20T11:03:57.406Z,14.05
2022-11-20T11:06:38.881Z,15.13
2022-11-20T11:09:12.081Z,13.32
2022-11-20T11:11:39.811Z,14.07
2022-11-20T11:14:11.192Z,14.90
2022-11-20T11:16:50.570Z,13.70
2022-11-20T11:19:18.594Z,13.90
2022-11-20T11:21:54.940Z,13.57
2022-11-20T11:27:16.960Z,14.68
2022-11-20T11:29:44.618Z,14.27
2022-11-20T11:32:16.125Z,13.27
2022-11-20T11:34:43.328Z,14.50
2022-11-20T11:37:22.467Z,14.55
2022-11-20T11:40:03.869Z,14.85
2022-11-20T11:42:41.844Z,14.75
2022-11-20T11:45:09.674Z,14.90
2022-11-20T11:47:47.989Z,15.30
2022-11-20T11:50:16.149Z,15.30
2022-11-20T11:52:58.645Z,15.73
2022-11-20T11:55:31.713Z,15.68
2022-11-20T11:58:06.044Z,16.55
2022-11-20T12:00:33.765Z,16.15
2022-11-20T12:03:11.769Z,15.18
2022-11-20T12:05:42.987Z,13.73
2022-11-20T12:08:23.115Z,17.00
2022-11-20T12:10:53.783Z,13.95
2022-11-20T12:13:29.833Z,17.58
2022-11-20T12:15:56.958Z,17.83
2022-11-20T12:18:24.644Z,17.65
2022-11-20T12:21:27.881Z,13.82
2022-11-20T12:24:13.937Z,17.48
2022-11-20T12:26:59.898Z,17.38
2022-11-20T12:29:26.702Z,17.15
2022-11-20T12:32:02.989Z,18.00
2022-11-20T12:34:42.477Z,21.02
2022-11-20T12:37:25.351Z,18.23
2022-11-20T12:39:59.692Z,23.92
2022-11-20T12:42:48.418Z,24.83
2022-11-20T12:45:27.639Z,18.58
2022-11-20T12:48:07.809Z,19.00
2022-11-20T12:51:08.457Z,19.25
2022-11-20T12:53:58.281Z,18.33
2022-11-20T12:56:28.526Z,16.88
2022-11-20T12:59:10.371Z,16.27
2022-11-20T13:01:49.329Z,12.85
2022-11-20T13:04:35.019Z,18.25
2022-11-20T13:07:06.448Z,15.75
2022-11-20T13:09:34.600Z,14.68
2022-11-20T13:12:08.173Z,16.75
2022-11-20T13:14:42.880Z,17.65
2022-11-20T13:17:26.186Z,13.70
2022-11-20T13:19:59.598Z,17.33
2022-11-20T13:22:30.767Z,13.38
2022-11-20T13:24:57.915Z,13.82
2022-11-20T13:27:25.499Z,12.60
2022-11-20T13:30:15.841Z,17.48
2022-11-20T13:33:09.062Z,15.30
2022-11-20T13:35:37.797Z,16.92
2022-11-20T13:38:04.919Z,14.85
2022-11-20T13:40:32.098Z,15.40
2022-11-20T13:43:17.990Z,17.00
2022-11-20T13:45:58.438Z,13.95
2022-11-20T13:48:27.413Z,13.77
2022-11-20T13:50:54.453Z,18.40
2022-11-20T13:53:30.413Z,19.63
2022-11-20T13:56:00.787Z,13.40
2022-11-20T13:58:42.101Z,17.20
2022-11-20T14:01:11.047Z,17.38
2022-11-20T14:04:04.638Z,12.68
2022-11-20T14:06:29.778Z,17.25
2022-11-20T14:08:57.537Z,16.73
2022-11-20T14:11:31.610Z,15.63
2022-11-20T14:14:25.217Z,16.02
2022-11-20T14:16:53.038Z,14.25
2022-11-20T14:19:23.673Z,16.52
2022-11-20T14:21:51.952Z,15.80
2022-11-20T14:24:23.702Z,16.40
2022-11-20T14:26:52.103Z,15.95
2022-11-20T14:29:19.261Z,17.27
2022-11-20T14:31:52.702Z,18.27
2022-11-20T14:34:23.767Z,15.43
2022-11-20T14:36:53.956Z,13.48
2022-11-20T14:39:22.262Z,15.00
2022-11-20T14:41:53.148Z,15.63
2022-11-20T14:44:23.032Z,17.80
2022-11-20T14:46:50.361Z,17.23
2022-11-20T14:49:17.740Z,13.95
2022-11-20T14:51:46.186Z,19.75
2022-11-20T14:54:18.277Z,15.95
2022-11-20T14:57:01.990Z,17.50
2022-11-20T14:59:34.614Z,13.65
2022-11-20T15:02:06.985Z,19.13
2022-11-20T15:04:34.319Z,19.30
2022-11-20T15:07:01.825Z,17.98
2022-11-20T15:09:35.888Z,19.17
2022-11-20T15:12:28.209Z,17.33
2022-11-20T15:14:58.335Z,19.20
2022-11-20T15:17:25.766Z,34.00
2022-11-20T15:19:53.708Z,20.55
2022-11-20T15:22:20.980Z,22.38
2022-11-20T15:24:48.138Z,12.23
2022-11-20T15:27:15.368Z,13.32
2022-11-20T15:29:47.083Z,15.05
2022-11-20T15:32:14.361Z,15.43
2022-11-20T15:34:41.548Z,23.55
2022-11-20T15:37:08.732Z,18.70
2022-11-20T15:39:36.145Z,17.45
2022-11-20T15:42:03.534Z,23.95
2022-11-20T15:44:30.684Z,16.05
2022-11-20T15:46:58.340Z,16.70
2022-11-20T15:49:27.483Z,16.40
2022-11-20T15:51:55.070Z,18.08
2022-11-20T15:54:23.557Z,27.25
2022-11-20T15:56:53.384Z,17.55
2022-11-20T15:59:23.479Z,10.32
2022-11-20T16:01:51.641Z,18.58
2022-11-20T16:04:19.495Z,19.23
2022-11-20T16:06:46.803Z,20.85
2022-11-20T16:09:16.955Z,35.72
2022-11-20T16:11:46.868Z,16.83
2022-11-20T16:14:32.765Z,15.80
2022-11-20T16:17:02.515Z,20.67
2022-11-20T16:19:29.771Z,18.00
2022-11-20T16:22:02.655Z,11.85
2022-11-20T16:24:30.472Z,17.17
2022-11-20T16:26:59.923Z,18.10
2022-11-20T16:29:27.046Z,16.17
2022-11-20T16:31:54.378Z,14.57
2022-11-20T16:34:21.473Z,17.85
2022-11-20T16:36:49.381Z,17.65
2022-11-20T16:39:21.915Z,17.08
2022-11-20T16:41:50.510Z,17.70
2022-11-20T16:44:17.686Z,18.77
2022-11-20T16:46:44.987Z,19.88
2022-11-20T16:49:13.694Z,19.50
2022-11-20T16:51:41.289Z,20.00
2022-11-20T16:54:09.760Z,19.38
2022-11-20T16:56:37.183Z,16.30
2022-11-20T16:59:04.466Z,17.30
2022-11-20T17:01:32.213Z,16.60
2022-11-20T17:04:00.713Z,19.17
2022-11-20T17:06:29.079Z,18.38
2022-11-20T17:08:57.059Z,15.55
2022-11-20T17:11:24.169Z,16.40
2022-11-20T17:13:51.659Z,17.40
2022-11-20T17:16:20.239Z,17.80
2022-11-20T17:18:47.397Z,12.73
2022-11-20T17:21:14.731Z,15.98
2022-11-20T17:23:43.451Z,17.45
2022-11-20T17:26:14.226Z,18.05
2022-11-20T17:28:41.643Z,14.75
2022-11-20T17:31:10.612Z,17.10
2022-11-20T17:33:38.416Z,19.25
2022-11-20T17:36:06.513Z,18.25
2022-11-20T17:38:33.887Z,17.38
2022-11-20T17:41:04.117Z,17.80
2022-11-20T17:43:35.490Z,17.90
2022-11-20T17:46:05.829Z,16.33
2022-11-20T17:48:33.265Z,17.83
2022-11-20T17:51:01.582Z,15.63
2022-11-20T17:53:29.480Z,19.10
2022-11-20T17:56:18.515Z,18.73
2022-11-20T17:58:45.716Z,18.10
2022-11-20T18:01:12.887Z,17.33
2022-11-20T18:03:40.176Z,16.42
2022-11-20T18:06:11.639Z,18.48
2022-11-20T18:08:38.980Z,19.77
2022-11-20T18:11:13.333Z,19.52
2022-11-20T18:13:59.686Z,18.77
2022-11-20T18:16:27.678Z,19.08
2022-11-20T18:18:55.843Z,19.40
2022-11-20T18:21:29.313Z,18.08
2022-11-20T18:23:57.063Z,18.15
2022-11-20T18:26:25.303Z,18.15
2022-11-20T18:28:52.454Z,18.48
2022-11-20T18:31:19.665Z,19.77
2022-11-20T18:33:47.601Z,20.42
2022-11-20T18:36:22.489Z,17.77
2022-11-20T18:38:50.381Z,18.88
2022-11-20T18:41:42.047Z,20.77
2022-11-20T18:44:32.427Z,20.38
2022-11-20T18:46:59.641Z,20.42
2022-11-20T18:49:27.224Z,20.33
2022-11-20T18:51:54.741Z,19.98
2022-11-20T18:54:22.184Z,19.25
2022-11-20T18:56:49.682Z,18.17
2022-11-20T18:59:17.414Z,19.85
2022-11-20T19:01:45.398Z,18.80
2022-11-20T19:04:13.653Z,19.08
2022-11-20T19:06:41.541Z,19.90
2022-11-20T19:09:09.883Z,17.38
2022-11-20T19:11:37.539Z,19.13
2022-11-20T19:14:05.013Z,18.15
2022-11-20T19:16:32.148Z,18.75
2022-11-20T19:19:03.564Z,22.30
2022-11-20T19:21:31.069Z,23.17
2022-11-20T19:24:00.322Z,19.90
2022-11-20T19:26:27.735Z,17.70
2022-11-20T19:28:55.077Z,15.50
2022-11-20T19:31:24.830Z,16.83
2022-11-20T19:34:03.203Z,16.90
2022-11-20T19:36:34.525Z,17.20
2022-11-20T19:39:03.019Z,17.20
2022-11-20T19:41:32.227Z,18.00
2022-11-20T19:44:06.423Z,19.55
2022-11-20T19:46:34.689Z,20.05
2022-11-20T19:49:02.182Z,18.90
2022-11-20T19:51:30.551Z,18.83
2022-11-20T19:53:58.988Z,17.05
2022-11-20T19:56:27.033Z,18.88
2022-11-20T19:58:54.782Z,18.42
2022-11-20T20:01:23.886Z,18.77
2022-11-20T20:03:51.584Z,19.73
2022-11-20T20:06:20.471Z,20.35
2022-11-20T20:08:49.238Z,16.58
2022-11-20T20:11:18.385Z,19.40
2022-11-20T20:13:46.014Z,19.58
2022-11-20T20:16:14.391Z,20.00
2022-11-20T20:18:41.753Z,19.58
2022-11-20T20:21:10.836Z,18.27
2022-11-20T20:23:38.203Z,18.38
2022-11-20T20:26:07.277Z,18.88
2022-11-20T20:28:38.641Z,18.38
2022-11-20T20:31:09.018Z,18.33
2022-11-20T20:33:39.695Z,18.90
2022-11-20T20:38:34.404Z,15.85
2022-11-20T20:41:02.194Z,19.13
2022-11-20T20:43:29.946Z,17.75
2022-11-20T20:45:57.053Z,18.98
2022-11-20T20:48:25.109Z,18.60
2022-11-20T20:51:03.075Z,19.25
2022-11-20T20:53:31.306Z,19.35
2022-11-20T20:55:59.209Z,19.10
2022-11-20T20:58:27.054Z,19.27
2022-11-20T21:00:54.313Z,19.17
2022-11-20T21:03:21.682Z,18.40
2022-11-20T21:05:55.962Z,26.38
2022-11-20T21:08:24.219Z,19.77
2022-11-20T21:11:03.978Z,18.30
2022-11-20T21:13:31.533Z,15.73
2022-11-20T21:15:59.008Z,18.85
2022-11-20T21:18:26.672Z,19.75
2022-11-20T21:21:12.823Z,19.75
2022-11-20T21:23:41.769Z,29.42
2022-11-20T21:26:09.587Z,24.52
2022-11-20T21:28:37.716Z,28.92
2022-11-20T21:31:07.856Z,31.35
2022-11-20T21:33:39.233Z,33.90
2022-11-20T21:36:07.193Z,19.38
2022-11-20T21:38:35.319Z,20.15
2022-11-20T21:41:03.112Z,19.13
2022-11-20T21:43:30.450Z,17.52
2022-11-20T21:46:07.855Z,18.38
2022-11-20T21:48:36.349Z,18.65
2022-11-20T21:51:07.065Z,19.92
2022-11-20T21:53:34.846Z,20.15
2022-11-20T21:56:04.135Z,19.60
2022-11-20T21:58:31.969Z,21.48
2022-11-20T22:00:59.305Z,19.23
2022-11-20T22:03:26.551Z,17.20
2022-11-20T22:05:57.506Z,19.50
2022-11-20T22:08:25.504Z,20.48
2022-11-20T22:11:00.134Z,20.15
2022-11-20T22:13:46.683Z,18.23
2022-11-20T22:16:14.741Z,18.27
2022-11-20T22:18:49.162Z,18.48
2022-11-20T22:21:17.333Z,19.33
2022-11-20T22:23:44.438Z,17.35
2022-11-20T22:26:12.690Z,20.92
2022-11-20T22:28:40.504Z,18.80
2022-11-20T22:31:08.950Z,18.05
2022-11-20T22:33:37.048Z,19.27
2022-11-20T22:36:05.670Z,18.65
2022-11-20T22:38:38.862Z,20.67
2022-11-20T22:41:13.318Z,20.48
2022-11-20T22:43:41.041Z,21.02
2022-11-20T22:46:13.024Z,20.65
2022-11-20T22:48:43.326Z,18.67
2022-11-20T22:51:11.643Z,19.65
2022-11-20T22:53:39.169Z,20.65
2022-11-20T22:56:06.816Z,19.60
2022-11-20T22:58:35.094Z,20.45
2022-11-20T23:01:18.849Z,20.35
2022-11-20T23:03:49.792Z,21.33
2022-11-20T23:06:17.600Z,19.42
2022-11-20T23:08:45.269Z,19.13
2022-11-20T23:11:16.733Z,22.23
2022-11-20T23:13:44.388Z,19.45
2022-11-20T23:16:19.835Z,20.92
2022-11-20T23:18:47.992Z,20.77
2022-11-20T23:21:15.103Z,19.88
2022-11-20T23:23:42.659Z,20.60
2022-11-20T23:26:11.422Z,18.85
2022-11-20T23:28:39.303Z,20.67
2022-11-20T23:31:06.884Z,19.92
2022-11-20T23:33:37.868Z,17.05
2022-11-20T23:36:05.263Z,17.77
2022-11-20T23:38:32.475Z,18.70
2022-11-20T23:40:59.878Z,16.52
2022-11-20T23:43:27.177Z,18.73
2022-11-20T23:45:55.729Z,17.67
2022-11-20T23:48:23.972Z,19.10
2022-11-20T23:50:51.214Z,18.67
2022-11-20T23:53:18.898Z,17.80
2022-11-20T23:55:46.878Z,18.85
2022-11-20T23:58:14.711Z,17.73
